sensor_id;sensor_type;location;lat;lon;timestamp;pressure;altitude;pressure_sealevel;temperature;humidity
10978;BME280;5542;48.272;10.794;2023-12-04T00:00:43;95874.00;;;-8.54;66.62
10978;BME280;5542;48.272;10.794;2023-12-04T00:03:11;95869.56;;;-8.39;67.34
10978;BME280;5542;48.272;10.794;2023-12-04T00:05:37;95863.00;;;-8.54;67.38
10978;BME280;5542;48.272;10.794;2023-12-04T00:08:04;95869.31;;;-8.60;68.12
10978;BME280;5542;48.272;10.794;2023-12-04T00:10:31;95865.28;;;-8.62;68.13
10978;BME280;5542;48.272;10.794;2023-12-04T00:12:57;95874.88;;;-8.66;68.66
10978;BME280;5542;48.272;10.794;2023-12-04T00:15:24;95868.75;;;-8.63;68.90
10978;BME280;5542;48.272;10.794;2023-12-04T00:17:50;95864.84;;;-8.56;68.77
10978;BME280;5542;48.272;10.794;2023-12-04T00:20:18;95864.38;;;-8.50;68.04
10978;BME280;5542;48.272;10.794;2023-12-04T00:22:45;95871.97;;;-8.48;68.23
10978;BME280;5542;48.272;10.794;2023-12-04T00:25:12;95868.31;;;-8.57;68.26
10978;BME280;5542;48.272;10.794;2023-12-04T00:27:38;95865.75;;;-8.57;68.54
10978;BME280;5542;48.272;10.794;2023-12-04T00:30:07;95860.38;;;-8.65;68.51
10978;BME280;5542;48.272;10.794;2023-12-04T00:32:34;95861.94;;;-8.75;68.51
10978;BME280;5542;48.272;10.794;2023-12-04T00:35:01;95849.41;;;-8.79;68.86
10978;BME280;5542;48.272;10.794;2023-12-04T00:37:29;95847.25;;;-8.72;69.29
10978;BME280;5542;48.272;10.794;2023-12-04T00:39:56;95840.22;;;-8.68;69.34
10978;BME280;5542;48.272;10.794;2023-12-04T00:42:23;95839.28;;;-8.67;69.59
10978;BME280;5542;48.272;10.794;2023-12-04T00:44:49;95833.84;;;-8.63;69.93
10978;BME280;5542;48.272;10.794;2023-12-04T00:47:16;95838.84;;;-8.61;68.99
10978;BME280;5542;48.272;10.794;2023-12-04T00:49:42;95839.50;;;-8.83;68.43
10978;BME280;5542;48.272;10.794;2023-12-04T00:52:09;95836.22;;;-8.96;68.52
10978;BME280;5542;48.272;10.794;2023-12-04T00:54:40;95833.97;;;-9.01;69.10
10978;BME280;5542;48.272;10.794;2023-12-04T00:57:07;95834.56;;;-8.97;69.28
10978;BME280;5542;48.272;10.794;2023-12-04T00:59:33;95828.84;;;-8.88;69.25
10978;BME280;5542;48.272;10.794;2023-12-04T01:02:00;95830.03;;;-8.81;69.08
10978;BME280;5542;48.272;10.794;2023-12-04T01:04:27;95833.69;;;-8.72;68.84
10978;BME280;5542;48.272;10.794;2023-12-04T01:06:53;95833.56;;;-8.71;68.47
10978;BME280;5542;48.272;10.794;2023-12-04T01:09:20;95818.41;;;-8.72;68.48
10978;BME280;5542;48.272;10.794;2023-12-04T01:11:51;95813.34;;;-8.85;68.99
10978;BME280;5542;48.272;10.794;2023-12-04T01:14:18;95813.00;;;-9.05;69.55
10978;BME280;5542;48.272;10.794;2023-12-04T01:16:44;95805.41;;;-9.30;70.49
10978;BME280;5542;48.272;10.794;2023-12-04T01:19:11;95809.16;;;-9.36;71.33
10978;BME280;5542;48.272;10.794;2023-12-04T01:21:38;95816.09;;;-9.25;70.97
10978;BME280;5542;48.272;10.794;2023-12-04T01:24:05;95821.19;;;-9.25;70.46
10978;BME280;5542;48.272;10.794;2023-12-04T01:26:31;95815.88;;;-9.22;70.71
10978;BME280;5542;48.272;10.794;2023-12-04T01:28:59;95812.19;;;-9.18;70.81
10978;BME280;5542;48.272;10.794;2023-12-04T01:31:26;95805.47;;;-9.06;70.97
10978;BME280;5542;48.272;10.794;2023-12-04T01:33:52;95805.53;;;-9.08;71.10
10978;BME280;5542;48.272;10.794;2023-12-04T01:36:19;95803.50;;;-9.03;71.18
10978;BME280;5542;48.272;10.794;2023-12-04T01:38:46;95802.84;;;-8.93;71.22
10978;BME280;5542;48.272;10.794;2023-12-04T01:41:12;95793.97;;;-8.88;71.11
10978;BME280;5542;48.272;10.794;2023-12-04T01:43:39;95784.03;;;-8.80;70.63
10978;BME280;5542;48.272;10.794;2023-12-04T01:46:07;95773.41;;;-8.73;70.68
10978;BME280;5542;48.272;10.794;2023-12-04T01:48:35;95768.69;;;-8.67;70.88
10978;BME280;5542;48.272;10.794;2023-12-04T01:51:05;95772.19;;;-8.68;70.30
10978;BME280;5542;48.272;10.794;2023-12-04T01:53:33;95775.94;;;-8.73;70.10
10978;BME280;5542;48.272;10.794;2023-12-04T01:56:01;95778.63;;;-8.75;70.15
10978;BME280;5542;48.272;10.794;2023-12-04T01:58:27;95773.31;;;-8.72;69.93
10978;BME280;5542;48.272;10.794;2023-12-04T02:00:54;95762.88;;;-8.69;68.98
10978;BME280;5542;48.272;10.794;2023-12-04T02:03:22;95760.78;;;-8.75;68.38
10978;BME280;5542;48.272;10.794;2023-12-04T02:05:51;95762.72;;;-8.79;67.94
10978;BME280;5542;48.272;10.794;2023-12-04T02:08:18;95756.25;;;-8.83;68.08
10978;BME280;5542;48.272;10.794;2023-12-04T02:10:44;95759.59;;;-8.82;67.94
10978;BME280;5542;48.272;10.794;2023-12-04T02:13:11;95751.34;;;-8.86;67.46
10978;BME280;5542;48.272;10.794;2023-12-04T02:15:38;95747.88;;;-8.85;67.01
10978;BME280;5542;48.272;10.794;2023-12-04T02:18:04;95744.47;;;-8.96;66.68
10978;BME280;5542;48.272;10.794;2023-12-04T02:20:33;95743.06;;;-9.00;66.81
10978;BME280;5542;48.272;10.794;2023-12-04T02:23:00;95739.94;;;-8.93;66.57
10978;BME280;5542;48.272;10.794;2023-12-04T02:25:29;95737.19;;;-8.90;65.99
10978;BME280;5542;48.272;10.794;2023-12-04T02:27:58;95728.72;;;-8.90;65.18
10978;BME280;5542;48.272;10.794;2023-12-04T02:30:28;95732.88;;;-9.00;63.71
10978;BME280;5542;48.272;10.794;2023-12-04T02:32:58;95730.25;;;-9.12;63.01
10978;BME280;5542;48.272;10.794;2023-12-04T02:35:27;95733.09;;;-9.16;63.34
10978;BME280;5542;48.272;10.794;2023-12-04T02:37:55;95731.31;;;-9.27;61.91
10978;BME280;5542;48.272;10.794;2023-12-04T02:40:24;95730.81;;;-9.32;62.16
10978;BME280;5542;48.272;10.794;2023-12-04T02:42:53;95724.53;;;-9.39;61.02
10978;BME280;5542;48.272;10.794;2023-12-04T02:45:20;95724.88;;;-9.44;60.26
10978;BME280;5542;48.272;10.794;2023-12-04T02:47:46;95724.94;;;-9.45;59.78
10978;BME280;5542;48.272;10.794;2023-12-04T02:50:13;95717.94;;;-9.55;59.67
10978;BME280;5542;48.272;10.794;2023-12-04T02:52:40;95710.41;;;-9.56;59.95
10978;BME280;5542;48.272;10.794;2023-12-04T02:55:07;95711.22;;;-9.56;59.65
10978;BME280;5542;48.272;10.794;2023-12-04T02:57:34;95703.53;;;-9.67;59.16
10978;BME280;5542;48.272;10.794;2023-12-04T03:00:02;95708.81;;;-9.70;59.10
10978;BME280;5542;48.272;10.794;2023-12-04T03:02:29;95709.13;;;-9.74;59.70
10978;BME280;5542;48.272;10.794;2023-12-04T03:04:56;95708.84;;;-9.83;59.94
10978;BME280;5542;48.272;10.794;2023-12-04T03:07:23;95697.03;;;-9.84;60.11
10978;BME280;5542;48.272;10.794;2023-12-04T03:09:50;95696.44;;;-9.87;59.83
10978;BME280;5542;48.272;10.794;2023-12-04T03:12:16;95695.03;;;-9.91;59.79
10978;BME280;5542;48.272;10.794;2023-12-04T03:14:43;95690.13;;;-9.94;60.05
10978;BME280;5542;48.272;10.794;2023-12-04T03:17:11;95692.56;;;-9.93;59.10
10978;BME280;5542;48.272;10.794;2023-12-04T03:19:38;95692.28;;;-10.01;57.87
10978;BME280;5542;48.272;10.794;2023-12-04T03:22:04;95688.63;;;-10.10;57.84
10978;BME280;5542;48.272;10.794;2023-12-04T03:24:31;95684.78;;;-10.15;58.01
10978;BME280;5542;48.272;10.794;2023-12-04T03:26:58;95678.66;;;-10.13;58.22
10978;BME280;5542;48.272;10.794;2023-12-04T03:29:24;95681.00;;;-10.10;58.25
10978;BME280;5542;48.272;10.794;2023-12-04T03:31:51;95680.78;;;-10.07;58.00
10978;BME280;5542;48.272;10.794;2023-12-04T03:34:18;95682.00;;;-10.12;58.11
10978;BME280;5542;48.272;10.794;2023-12-04T03:36:45;95680.56;;;-10.16;58.72
10978;BME280;5542;48.272;10.794;2023-12-04T03:39:12;95680.56;;;-10.16;59.96
10978;BME280;5542;48.272;10.794;2023-12-04T03:41:38;95668.16;;;-10.21;60.15
10978;BME280;5542;48.272;10.794;2023-12-04T03:44:05;95666.56;;;-10.22;59.55
10978;BME280;5542;48.272;10.794;2023-12-04T03:46:31;95671.44;;;-10.19;60.04
10978;BME280;5542;48.272;10.794;2023-12-04T03:48:59;95667.84;;;-10.16;60.04
10978;BME280;5542;48.272;10.794;2023-12-04T03:51:27;95660.16;;;-10.15;59.56
10978;BME280;5542;48.272;10.794;2023-12-04T03:53:53;95655.56;;;-10.10;58.99
10978;BME280;5542;48.272;10.794;2023-12-04T03:56:20;95653.09;;;-10.11;57.66
10978;BME280;5542;48.272;10.794;2023-12-04T03:58:46;95652.91;;;-10.21;57.81
10978;BME280;5542;48.272;10.794;2023-12-04T04:01:13;95651.28;;;-10.22;57.85
10978;BME280;5542;48.272;10.794;2023-12-04T04:03:40;95652.34;;;-10.24;57.88
10978;BME280;5542;48.272;10.794;2023-12-04T04:06:08;95662.72;;;-10.27;57.45
10978;BME280;5542;48.272;10.794;2023-12-04T04:08:36;95669.47;;;-10.39;57.13
10978;BME280;5542;48.272;10.794;2023-12-04T04:11:03;95669.94;;;-10.47;57.70
10978;BME280;5542;48.272;10.794;2023-12-04T04:13:30;95662.81;;;-10.54;57.78
10978;BME280;5542;48.272;10.794;2023-12-04T04:15:56;95647.88;;;-10.59;57.95
10978;BME280;5542;48.272;10.794;2023-12-04T04:18:23;95640.53;;;-10.64;58.92
10978;BME280;5542;48.272;10.794;2023-12-04T04:20:49;95636.91;;;-10.60;59.26
10978;BME280;5542;48.272;10.794;2023-12-04T04:23:16;95623.88;;;-10.55;59.62
10978;BME280;5542;48.272;10.794;2023-12-04T04:25:44;95616.69;;;-10.48;59.36
10978;BME280;5542;48.272;10.794;2023-12-04T04:28:10;95612.47;;;-10.49;58.65
10978;BME280;5542;48.272;10.794;2023-12-04T04:30:37;95611.69;;;-10.50;58.24
10978;BME280;5542;48.272;10.794;2023-12-04T04:33:05;95620.03;;;-10.48;57.82
10978;BME280;5542;48.272;10.794;2023-12-04T04:35:31;95614.75;;;-10.57;57.94
10978;BME280;5542;48.272;10.794;2023-12-04T04:37:58;95620.22;;;-10.64;58.40
10978;BME280;5542;48.272;10.794;2023-12-04T04:40:24;95615.34;;;-10.67;58.76
10978;BME280;5542;48.272;10.794;2023-12-04T04:42:52;95607.44;;;-10.62;59.63
10978;BME280;5542;48.272;10.794;2023-12-04T04:45:19;95611.88;;;-10.66;61.28
10978;BME280;5542;48.272;10.794;2023-12-04T04:47:45;95615.25;;;-10.52;61.05
10978;BME280;5542;48.272;10.794;2023-12-04T04:50:12;95615.75;;;-10.47;61.53
10978;BME280;5542;48.272;10.794;2023-12-04T04:52:39;95611.16;;;-10.42;61.14
10978;BME280;5542;48.272;10.794;2023-12-04T04:55:06;95603.34;;;-10.39;61.15
10978;BME280;5542;48.272;10.794;2023-12-04T04:57:33;95607.50;;;-10.38;60.42
10978;BME280;5542;48.272;10.794;2023-12-04T05:00:01;95605.97;;;-10.41;60.19
10978;BME280;5542;48.272;10.794;2023-12-04T05:02:28;95603.34;;;-10.52;59.99
10978;BME280;5542;48.272;10.794;2023-12-04T05:04:54;95610.34;;;-10.55;59.69
10978;BME280;5542;48.272;10.794;2023-12-04T05:07:21;95601.81;;;-10.54;60.34
10978;BME280;5542;48.272;10.794;2023-12-04T05:09:47;95602.84;;;-10.57;60.93
10978;BME280;5542;48.272;10.794;2023-12-04T05:12:14;95608.44;;;-10.52;62.14
10978;BME280;5542;48.272;10.794;2023-12-04T05:14:41;95601.69;;;-10.40;62.50
10978;BME280;5542;48.272;10.794;2023-12-04T05:17:09;95603.34;;;-10.39;62.75
10978;BME280;5542;48.272;10.794;2023-12-04T05:19:35;95605.16;;;-10.41;62.95
10978;BME280;5542;48.272;10.794;2023-12-04T05:22:02;95610.47;;;-10.44;62.89
10978;BME280;5542;48.272;10.794;2023-12-04T05:24:29;95615.44;;;-10.43;62.92
10978;BME280;5542;48.272;10.794;2023-12-04T05:26:55;95617.56;;;-10.37;63.30
10978;BME280;5542;48.272;10.794;2023-12-04T05:29:22;95621.03;;;-10.25;63.37
10978;BME280;5542;48.272;10.794;2023-12-04T05:31:48;95621.22;;;-10.41;63.60
10978;BME280;5542;48.272;10.794;2023-12-04T05:34:16;95619.91;;;-10.46;64.10
10978;BME280;5542;48.272;10.794;2023-12-04T05:36:43;95614.31;;;-10.39;64.58
10978;BME280;5542;48.272;10.794;2023-12-04T05:39:09;95613.22;;;-10.35;64.83
10978;BME280;5542;48.272;10.794;2023-12-04T05:41:36;95605.28;;;-10.30;64.89
10978;BME280;5542;48.272;10.794;2023-12-04T05:44:03;95606.41;;;-10.34;64.91
10978;BME280;5542;48.272;10.794;2023-12-04T05:46:29;95604.53;;;-10.32;64.37
10978;BME280;5542;48.272;10.794;2023-12-04T05:48:57;95586.66;;;-10.43;63.53
10978;BME280;5542;48.272;10.794;2023-12-04T05:51:25;95579.03;;;-10.43;63.51
10978;BME280;5542;48.272;10.794;2023-12-04T05:53:52;95582.91;;;-10.38;64.02
10978;BME280;5542;48.272;10.794;2023-12-04T05:56:18;95582.59;;;-10.33;64.04
10978;BME280;5542;48.272;10.794;2023-12-04T05:58:45;95580.97;;;-10.34;64.24
10978;BME280;5542;48.272;10.794;2023-12-04T06:01:12;95580.72;;;-10.31;64.67
10978;BME280;5542;48.272;10.794;2023-12-04T06:03:38;95584.34;;;-10.22;63.63
10978;BME280;5542;48.272;10.794;2023-12-04T06:06:05;95586.75;;;-10.32;63.59
10978;BME280;5542;48.272;10.794;2023-12-04T06:08:33;95585.44;;;-10.38;62.94
10978;BME280;5542;48.272;10.794;2023-12-04T06:11:00;95584.03;;;-10.54;62.52
10978;BME280;5542;48.272;10.794;2023-12-04T06:13:27;95574.69;;;-10.67;63.01
10978;BME280;5542;48.272;10.794;2023-12-04T06:15:53;95568.88;;;-10.69;63.58
10978;BME280;5542;48.272;10.794;2023-12-04T06:18:20;95563.91;;;-10.70;63.97
10978;BME280;5542;48.272;10.794;2023-12-04T06:20:46;95563.72;;;-10.80;63.81
10978;BME280;5542;48.272;10.794;2023-12-04T06:23:14;95563.91;;;-10.83;64.04
10978;BME280;5542;48.272;10.794;2023-12-04T06:25:43;95564.53;;;-10.79;64.27
10978;BME280;5542;48.272;10.794;2023-12-04T06:28:10;95558.63;;;-10.67;64.66
10978;BME280;5542;48.272;10.794;2023-12-04T06:30:38;95551.81;;;-10.67;64.55
10978;BME280;5542;48.272;10.794;2023-12-04T06:33:05;95541.53;;;-10.65;64.33
10978;BME280;5542;48.272;10.794;2023-12-04T06:35:33;95531.28;;;-10.76;64.16
10978;BME280;5542;48.272;10.794;2023-12-04T06:38:02;95537.69;;;-10.71;64.57
10978;BME280;5542;48.272;10.794;2023-12-04T06:40:32;95536.66;;;-10.68;64.33
10978;BME280;5542;48.272;10.794;2023-12-04T06:43:00;95543.16;;;-10.64;64.39
10978;BME280;5542;48.272;10.794;2023-12-04T06:45:27;95547.44;;;-10.52;63.64
10978;BME280;5542;48.272;10.794;2023-12-04T06:47:54;95540.94;;;-10.69;63.55
10978;BME280;5542;48.272;10.794;2023-12-04T06:50:21;95534.53;;;-10.74;64.03
10978;BME280;5542;48.272;10.794;2023-12-04T06:52:48;95541.66;;;-10.79;64.49
10978;BME280;5542;48.272;10.794;2023-12-04T06:55:15;95538.13;;;-10.77;64.78
10978;BME280;5542;48.272;10.794;2023-12-04T06:57:41;95531.69;;;-10.70;64.50
10978;BME280;5542;48.272;10.794;2023-12-04T07:00:11;95534.22;;;-10.70;64.67
10978;BME280;5542;48.272;10.794;2023-12-04T07:02:39;95529.56;;;-10.63;64.37
10978;BME280;5542;48.272;10.794;2023-12-04T07:05:06;95530.94;;;-10.59;64.85
10978;BME280;5542;48.272;10.794;2023-12-04T07:07:33;95519.97;;;-10.47;65.24
10978;BME280;5542;48.272;10.794;2023-12-04T07:10:00;95528.88;;;-10.41;65.28
10978;BME280;5542;48.272;10.794;2023-12-04T07:12:27;95528.28;;;-10.45;64.49
10978;BME280;5542;48.272;10.794;2023-12-04T07:14:53;95526.78;;;-10.47;64.09
10978;BME280;5542;48.272;10.794;2023-12-04T07:17:21;95530.41;;;-10.39;63.90
10978;BME280;5542;48.272;10.794;2023-12-04T07:19:48;95530.00;;;-10.33;63.84
10978;BME280;5542;48.272;10.794;2023-12-04T07:22:14;95523.28;;;-10.34;63.35
10978;BME280;5542;48.272;10.794;2023-12-04T07:24:41;95513.53;;;-10.40;62.74
10978;BME280;5542;48.272;10.794;2023-12-04T07:27:08;95513.03;;;-10.45;62.98
10978;BME280;5542;48.272;10.794;2023-12-04T07:29:34;95513.03;;;-10.45;63.08
10978;BME280;5542;48.272;10.794;2023-12-04T07:32:03;95508.66;;;-10.43;63.47
10978;BME280;5542;48.272;10.794;2023-12-04T07:34:31;95503.69;;;-10.44;63.15
10978;BME280;5542;48.272;10.794;2023-12-04T07:36:58;95510.59;;;-10.46;63.31
10978;BME280;5542;48.272;10.794;2023-12-04T07:39:24;95502.66;;;-10.42;63.74
10978;BME280;5542;48.272;10.794;2023-12-04T07:41:51;95506.56;;;-10.49;63.68
10978;BME280;5542;48.272;10.794;2023-12-04T07:44:18;95509.22;;;-10.63;64.27
10978;BME280;5542;48.272;10.794;2023-12-04T07:46:44;95504.72;;;-10.60;64.51
10978;BME280;5542;48.272;10.794;2023-12-04T07:49:11;95497.50;;;-10.53;66.04
10978;BME280;5542;48.272;10.794;2023-12-04T07:51:39;95496.38;;;-10.49;66.08
10978;BME280;5542;48.272;10.794;2023-12-04T07:54:06;95499.59;;;-10.34;66.33
10978;BME280;5542;48.272;10.794;2023-12-04T07:56:33;95498.13;;;-10.25;65.98
10978;BME280;5542;48.272;10.794;2023-12-04T07:58:59;95497.88;;;-10.22;65.57
10978;BME280;5542;48.272;10.794;2023-12-04T08:01:26;95502.16;;;-10.23;65.39
10978;BME280;5542;48.272;10.794;2023-12-04T08:03:52;95497.94;;;-10.35;65.57
10978;BME280;5542;48.272;10.794;2023-12-04T08:06:19;95496.13;;;-10.33;65.35
10978;BME280;5542;48.272;10.794;2023-12-04T08:08:47;95486.00;;;-10.46;63.93
10978;BME280;5542;48.272;10.794;2023-12-04T08:11:14;95490.56;;;-10.51;63.87
10978;BME280;5542;48.272;10.794;2023-12-04T08:13:41;95488.53;;;-10.46;64.48
10978;BME280;5542;48.272;10.794;2023-12-04T08:16:13;95493.91;;;-10.38;64.54
10978;BME280;5542;48.272;10.794;2023-12-04T08:18:40;95488.38;;;-10.32;64.45
10978;BME280;5542;48.272;10.794;2023-12-04T08:21:07;95501.22;;;-10.33;64.28
10978;BME280;5542;48.272;10.794;2023-12-04T08:23:34;95498.56;;;-10.32;64.32
10978;BME280;5542;48.272;10.794;2023-12-04T08:26:02;95491.53;;;-10.28;64.55
10978;BME280;5542;48.272;10.794;2023-12-04T08:28:29;95496.28;;;-10.23;64.63
10978;BME280;5542;48.272;10.794;2023-12-04T08:30:56;95498.28;;;-10.16;64.99
10978;BME280;5542;48.272;10.794;2023-12-04T08:33:22;95502.94;;;-10.10;65.27
10978;BME280;5542;48.272;10.794;2023-12-04T08:35:49;95489.94;;;-10.18;65.13
10978;BME280;5542;48.272;10.794;2023-12-04T08:38:16;95490.50;;;-10.25;65.45
10978;BME280;5542;48.272;10.794;2023-12-04T08:40:43;95492.00;;;-10.23;65.81
10978;BME280;5542;48.272;10.794;2023-12-04T08:43:11;95491.78;;;-10.20;65.96
10978;BME280;5542;48.272;10.794;2023-12-04T08:45:37;95494.34;;;-10.20;65.81
10978;BME280;5542;48.272;10.794;2023-12-04T08:48:04;95499.31;;;-10.18;66.12
10978;BME280;5542;48.272;10.794;2023-12-04T08:50:31;95495.38;;;-10.11;66.93
10978;BME280;5542;48.272;10.794;2023-12-04T08:52:58;95503.31;;;-10.03;67.50
10978;BME280;5542;48.272;10.794;2023-12-04T08:55:24;95491.88;;;-9.97;67.03
10978;BME280;5542;48.272;10.794;2023-12-04T08:57:51;95484.25;;;-9.97;66.77
10978;BME280;5542;48.272;10.794;2023-12-04T09:00:19;95478.31;;;-10.09;66.67
10978;BME280;5542;48.272;10.794;2023-12-04T09:02:47;95469.44;;;-10.03;66.98
10978;BME280;5542;48.272;10.794;2023-12-04T09:05:13;95466.22;;;-9.94;67.68
10978;BME280;5542;48.272;10.794;2023-12-04T09:07:40;95462.53;;;-9.90;67.63
10978;BME280;5542;48.272;10.794;2023-12-04T09:10:07;95461.25;;;-9.96;67.83
10978;BME280;5542;48.272;10.794;2023-12-04T09:12:34;95454.69;;;-10.11;68.27
10978;BME280;5542;48.272;10.794;2023-12-04T09:15:03;95448.75;;;-10.23;69.74
10978;BME280;5542;48.272;10.794;2023-12-04T09:17:32;95454.06;;;-10.26;70.23
10978;BME280;5542;48.272;10.794;2023-12-04T09:19:58;95458.31;;;-10.02;71.18
10978;BME280;5542;48.272;10.794;2023-12-04T09:22:25;95466.16;;;-9.82;71.63
10978;BME280;5542;48.272;10.794;2023-12-04T09:24:51;95465.19;;;-9.68;71.05
10978;BME280;5542;48.272;10.794;2023-12-04T09:27:18;95455.47;;;-9.63;70.82
10978;BME280;5542;48.272;10.794;2023-12-04T09:29:45;95462.34;;;-9.41;71.21
10978;BME280;5542;48.272;10.794;2023-12-04T09:32:11;95461.09;;;-9.13;70.46
10978;BME280;5542;48.272;10.794;2023-12-04T09:34:39;95458.13;;;-9.07;69.58
10978;BME280;5542;48.272;10.794;2023-12-04T09:37:06;95462.88;;;-8.91;70.05
10978;BME280;5542;48.272;10.794;2023-12-04T09:39:32;95456.00;;;-8.79;70.74
10978;BME280;5542;48.272;10.794;2023-12-04T09:41:59;95446.50;;;-8.66;70.39
10978;BME280;5542;48.272;10.794;2023-12-04T09:44:28;95449.97;;;-8.56;68.41
10978;BME280;5542;48.272;10.794;2023-12-04T09:46:55;95446.28;;;-8.63;67.79
10978;BME280;5542;48.272;10.794;2023-12-04T09:49:22;95439.91;;;-8.57;68.30
10978;BME280;5542;48.272;10.794;2023-12-04T09:51:51;95442.09;;;-8.53;68.25
10978;BME280;5542;48.272;10.794;2023-12-04T09:54:18;95422.94;;;-8.47;68.15
10978;BME280;5542;48.272;10.794;2023-12-04T09:56:45;95421.69;;;-8.53;67.75
10978;BME280;5542;48.272;10.794;2023-12-04T09:59:13;95412.88;;;-8.48;67.93
10978;BME280;5542;48.272;10.794;2023-12-04T10:01:40;95415.91;;;-8.66;67.30
10978;BME280;5542;48.272;10.794;2023-12-04T10:04:07;95404.56;;;-8.62;68.21
10978;BME280;5542;48.272;10.794;2023-12-04T10:06:37;95403.03;;;-8.53;68.61
10978;BME280;5542;48.272;10.794;2023-12-04T10:09:05;95395.97;;;-8.49;69.36
10978;BME280;5542;48.272;10.794;2023-12-04T10:11:39;95400.56;;;-8.43;69.84
10978;BME280;5542;48.272;10.794;2023-12-04T10:14:14;95394.72;;;-8.34;70.77
10978;BME280;5542;48.272;10.794;2023-12-04T10:16:41;95389.91;;;-8.16;70.77
10978;BME280;5542;48.272;10.794;2023-12-04T10:19:19;95385.06;;;-7.99;70.92
10978;BME280;5542;48.272;10.794;2023-12-04T10:21:47;95370.44;;;-7.96;68.93
10978;BME280;5542;48.272;10.794;2023-12-04T10:24:28;95358.13;;;-7.91;68.81
10978;BME280;5542;48.272;10.794;2023-12-04T10:26:55;95353.75;;;-7.80;69.64
10978;BME280;5542;48.272;10.794;2023-12-04T10:29:23;95345.72;;;-7.75;68.63
10978;BME280;5542;48.272;10.794;2023-12-04T10:31:51;95336.34;;;-7.65;68.88
10978;BME280;5542;48.272;10.794;2023-12-04T10:34:20;95344.44;;;-7.60;68.89
10978;BME280;5542;48.272;10.794;2023-12-04T10:36:49;95350.72;;;-7.43;69.22
10978;BME280;5542;48.272;10.794;2023-12-04T10:39:16;95343.34;;;-7.36;68.87
10978;BME280;5542;48.272;10.794;2023-12-04T10:41:44;95347.78;;;-7.38;68.81
10978;BME280;5542;48.272;10.794;2023-12-04T10:44:16;95338.56;;;-7.30;69.56
10978;BME280;5542;48.272;10.794;2023-12-04T10:46:45;95343.03;;;-7.12;70.13
10978;BME280;5542;48.272;10.794;2023-12-04T10:49:13;95350.75;;;-7.03;68.02
10978;BME280;5542;48.272;10.794;2023-12-04T10:51:40;95341.59;;;-7.05;67.71
10978;BME280;5542;48.272;10.794;2023-12-04T10:54:07;95342.28;;;-7.03;68.61
10978;BME280;5542;48.272;10.794;2023-12-04T10:56:36;95334.75;;;-7.05;69.92
10978;BME280;5542;48.272;10.794;2023-12-04T10:59:10;95335.03;;;-6.98;70.53
10978;BME280;5542;48.272;10.794;2023-12-04T11:01:38;95327.25;;;-6.87;70.71
10978;BME280;5542;48.272;10.794;2023-12-04T11:04:12;95312.19;;;-6.71;69.01
10978;BME280;5542;48.272;10.794;2023-12-04T11:06:45;95307.91;;;-6.70;68.87
10978;BME280;5542;48.272;10.794;2023-12-04T11:09:16;95304.53;;;-6.80;68.68
10978;BME280;5542;48.272;10.794;2023-12-04T11:11:47;95298.03;;;-6.84;68.71
10978;BME280;5542;48.272;10.794;2023-12-04T11:14:20;95312.19;;;-6.80;68.18
10978;BME280;5542;48.272;10.794;2023-12-04T11:16:49;95336.34;;;-7.04;68.34
10978;BME280;5542;48.272;10.794;2023-12-04T11:19:23;95347.59;;;-7.26;69.20
10978;BME280;5542;48.272;10.794;2023-12-04T11:21:56;95333.03;;;-7.35;70.90
10978;BME280;5542;48.272;10.794;2023-12-04T11:24:24;95346.94;;;-7.18;71.20
10978;BME280;5542;48.272;10.794;2023-12-04T11:26:51;95361.91;;;-7.04;70.05
10978;BME280;5542;48.272;10.794;2023-12-04T11:29:20;95338.97;;;-7.25;69.10
10978;BME280;5542;48.272;10.794;2023-12-04T11:31:47;95342.47;;;-7.26;69.75
10978;BME280;5542;48.272;10.794;2023-12-04T11:34:14;95340.72;;;-7.25;70.22
10978;BME280;5542;48.272;10.794;2023-12-04T11:36:41;95327.31;;;-7.08;71.13
10978;BME280;5542;48.272;10.794;2023-12-04T11:39:09;95326.66;;;-7.10;70.29
10978;BME280;5542;48.272;10.794;2023-12-04T11:41:36;95321.72;;;-7.02;70.75
10978;BME280;5542;48.272;10.794;2023-12-04T11:44:03;95314.56;;;-6.98;70.20
10978;BME280;5542;48.272;10.794;2023-12-04T11:46:39;95304.59;;;-7.11;70.06
10978;BME280;5542;48.272;10.794;2023-12-04T11:49:27;95304.31;;;-7.08;70.05
10978;BME280;5542;48.272;10.794;2023-12-04T11:51:55;95289.84;;;-6.98;70.81
10978;BME280;5542;48.272;10.794;2023-12-04T11:54:22;95289.56;;;-6.94;71.15
10978;BME280;5542;48.272;10.794;2023-12-04T11:57:18;95281.78;;;-6.83;72.18
10978;BME280;5542;48.272;10.794;2023-12-04T11:59:46;95283.00;;;-6.68;72.55
10978;BME280;5542;48.272;10.794;2023-12-04T12:02:15;95280.31;;;-6.57;72.85
10978;BME280;5542;48.272;10.794;2023-12-04T12:04:41;95276.00;;;-6.47;73.13
10978;BME280;5542;48.272;10.794;2023-12-04T12:07:09;95276.81;;;-6.36;73.81
10978;BME280;5542;48.272;10.794;2023-12-04T12:09:36;95265.63;;;-6.26;73.53
10978;BME280;5542;48.272;10.794;2023-12-04T12:12:04;95260.13;;;-6.31;73.45
10978;BME280;5542;48.272;10.794;2023-12-04T12:14:31;95249.75;;;-6.29;73.72
10978;BME280;5542;48.272;10.794;2023-12-04T12:16:59;95259.97;;;-6.29;74.11
10978;BME280;5542;48.272;10.794;2023-12-04T12:19:28;95245.41;;;-6.19;74.72
10978;BME280;5542;48.272;10.794;2023-12-04T12:21:54;95242.72;;;-6.27;75.67
10978;BME280;5542;48.272;10.794;2023-12-04T12:24:21;95238.19;;;-6.53;75.57
10978;BME280;5542;48.272;10.794;2023-12-04T12:26:47;95239.25;;;-6.65;74.04
10978;BME280;5542;48.272;10.794;2023-12-04T12:29:14;95240.03;;;-6.74;75.29
10978;BME280;5542;48.272;10.794;2023-12-04T12:31:41;95230.50;;;-6.53;75.80
10978;BME280;5542;48.272;10.794;2023-12-04T12:34:07;95227.41;;;-6.56;75.33
10978;BME280;5542;48.272;10.794;2023-12-04T12:36:35;95232.91;;;-6.71;76.30
10978;BME280;5542;48.272;10.794;2023-12-04T12:39:02;95230.91;;;-6.67;76.22
10978;BME280;5542;48.272;10.794;2023-12-04T12:41:30;95228.09;;;-6.74;76.25
10978;BME280;5542;48.272;10.794;2023-12-04T12:43:56;95215.56;;;-6.77;76.97
10978;BME280;5542;48.272;10.794;2023-12-04T12:46:25;95196.16;;;-6.79;77.00
10978;BME280;5542;48.272;10.794;2023-12-04T12:48:51;95191.88;;;-6.88;77.24
10978;BME280;5542;48.272;10.794;2023-12-04T12:51:18;95192.00;;;-6.90;77.52
10978;BME280;5542;48.272;10.794;2023-12-04T12:53:47;95210.72;;;-6.80;76.98
10978;BME280;5542;48.272;10.794;2023-12-04T12:56:14;95208.28;;;-6.72;77.25